createdAt,value
2022-10-21T00:00:51.949Z,7.32
2022-10-21T00:03:20.395Z,7.43
2022-10-21T00:05:49.131Z,7.26
2022-10-21T00:08:18.038Z,7.27
2022-10-21T00:10:45.985Z,7.20
2022-10-21T00:13:13.887Z,7.28
2022-10-21T00:15:41.785Z,7.38
2022-10-21T00:18:10.995Z,7.35
2022-10-21T00:20:41.504Z,7.20
2022-10-21T00:23:09.338Z,7.15
2022-10-21T00:25:39.467Z,7.13
2022-10-21T00:28:07.334Z,7.14
2022-10-21T00:30:35.201Z,7.12
2022-10-21T00:33:03.446Z,7.13
2022-10-21T00:35:35.397Z,7.12
2022-10-21T00:38:03.265Z,7.14
2022-10-21T00:40:31.366Z,7.01
2022-10-21T00:42:59.198Z,6.92
2022-10-21T00:45:29.589Z,6.94
2022-10-21T00:48:03.814Z,6.90
2022-10-21T00:50:41.739Z,6.84
2022-10-21T00:53:14.155Z,6.94
2022-10-21T00:55:46.849Z,7.01
2022-10-21T00:58:15.518Z,6.98
2022-10-21T01:00:43.475Z,6.95
2022-10-21T01:03:11.538Z,7.03
2022-10-21T01:05:42.399Z,7.01
2022-10-21T01:08:10.363Z,6.89
2022-10-21T01:10:39.153Z,6.87
2022-10-21T01:13:22.511Z,6.77
2022-10-21T01:15:57.770Z,6.77
2022-10-21T01:18:31.628Z,6.73
2022-10-21T01:21:20.912Z,6.60
2022-10-21T01:24:15.842Z,6.68
2022-10-21T01:27:06.755Z,6.61
2022-10-21T01:30:07.886Z,6.60
2022-10-21T01:33:01.138Z,6.66
2022-10-21T01:35:36.483Z,6.61
2022-10-21T01:38:10.424Z,6.41
2022-10-21T01:40:46.680Z,6.69
2022-10-21T01:43:21.163Z,6.59
2022-10-21T01:45:53.160Z,6.75
2022-10-21T01:48:25.664Z,6.67
2022-10-21T01:50:58.512Z,6.47
2022-10-21T01:53:30.938Z,6.66
2022-10-21T01:56:00.923Z,6.67
2022-10-21T01:58:32.615Z,6.72
2022-10-21T02:01:04.160Z,6.79
2022-10-21T02:03:37.405Z,6.77
2022-10-21T02:06:06.527Z,6.70
2022-10-21T02:08:35.459Z,6.59
2022-10-21T02:11:13.785Z,6.37
2022-10-21T02:13:46.974Z,6.40
2022-10-21T02:16:19.576Z,6.27
2022-10-21T02:18:48.992Z,6.22
2022-10-21T02:21:20.077Z,6.30
2022-10-21T02:23:54.457Z,6.41
2022-10-21T02:26:23.209Z,6.22
2022-10-21T02:28:53.709Z,6.24
2022-10-21T02:31:36.668Z,6.31
2022-10-21T02:34:16.046Z,6.19
2022-10-21T02:36:51.075Z,6.14
2022-10-21T02:39:26.073Z,6.04
2022-10-21T02:41:57.179Z,5.91
2022-10-21T02:44:25.336Z,5.70
2022-10-21T02:46:53.696Z,5.81
2022-10-21T02:49:22.896Z,5.64
2022-10-21T02:51:50.780Z,5.70
2022-10-21T02:54:18.651Z,5.66
2022-10-21T02:56:46.476Z,5.72
2022-10-21T02:59:14.442Z,5.95
2022-10-21T03:01:42.296Z,5.94
2022-10-21T03:04:10.139Z,5.86
2022-10-21T03:06:39.341Z,5.87
2022-10-21T03:09:07.197Z,5.81
2022-10-21T03:11:35.105Z,5.86
2022-10-21T03:14:02.991Z,5.90
2022-10-21T03:16:30.998Z,5.73
2022-10-21T03:18:58.851Z,5.72
2022-10-21T03:21:26.719Z,5.66
2022-10-21T03:23:55.916Z,5.59
2022-10-21T03:26:23.772Z,5.65
2022-10-21T03:28:51.661Z,5.62
2022-10-21T03:31:19.535Z,5.56
2022-10-21T03:33:47.391Z,5.52
2022-10-21T03:36:15.281Z,5.47
2022-10-21T03:38:43.153Z,5.55
2022-10-21T03:41:12.396Z,5.45
2022-10-21T03:43:40.236Z,5.49
2022-10-21T03:46:08.072Z,5.56
2022-10-21T03:48:35.966Z,5.24
2022-10-21T03:51:03.860Z,5.52
2022-10-21T03:53:42.865Z,5.49
2022-10-21T03:56:12.788Z,5.51
2022-10-21T03:58:40.742Z,5.55
2022-10-21T04:01:12.081Z,5.54
2022-10-21T04:03:41.189Z,5.51
2022-10-21T04:06:09.351Z,5.40
2022-10-21T04:08:37.489Z,5.75
2022-10-21T04:11:06.572Z,5.37
2022-10-21T04:13:35.803Z,5.71
2022-10-21T04:16:05.817Z,5.72
2022-10-21T04:18:34.433Z,5.74
2022-10-21T04:21:02.365Z,5.78
2022-10-21T04:23:30.200Z,5.62
2022-10-21T04:25:58.086Z,5.91
2022-10-21T04:28:26.019Z,5.91
2022-10-21T04:30:55.410Z,5.83
2022-10-21T04:33:23.333Z,5.85
2022-10-21T04:35:51.200Z,5.82
2022-10-21T04:38:19.111Z,5.71
2022-10-21T04:40:47.208Z,5.86
2022-10-21T04:43:15.046Z,5.88
2022-10-21T04:45:42.898Z,5.74
2022-10-21T04:48:13.672Z,5.73
2022-10-21T04:50:41.594Z,5.74
2022-10-21T04:53:09.451Z,5.80
2022-10-21T04:55:40.085Z,5.91
2022-10-21T04:58:08.007Z,5.97
2022-10-21T05:00:36.207Z,5.83
2022-10-21T05:03:05.009Z,6.17
2022-10-21T05:05:34.248Z,6.29
2022-10-21T05:08:02.159Z,6.42
2022-10-21T05:10:30.463Z,6.70
2022-10-21T05:12:58.659Z,6.86
2022-10-21T05:15:27.204Z,7.25
2022-10-21T05:17:55.566Z,7.70
2022-10-21T05:20:23.402Z,7.93
2022-10-21T05:22:53.564Z,8.31
2022-10-21T05:25:23.027Z,8.67
2022-10-21T05:27:51.892Z,8.90
2022-10-21T05:30:19.850Z,9.05
2022-10-21T05:32:47.683Z,9.06
2022-10-21T05:35:15.545Z,9.25
2022-10-21T05:37:43.429Z,9.37
2022-10-21T05:40:13.664Z,9.45
2022-10-21T05:42:41.599Z,9.61
2022-10-21T05:45:10.965Z,9.83
2022-10-21T05:47:39.837Z,9.96
2022-10-21T05:50:09.073Z,10.00
2022-10-21T05:52:37.106Z,10.16
2022-10-21T05:55:05.628Z,10.35
2022-10-21T05:57:34.901Z,10.36
2022-10-21T06:00:05.186Z,10.47
2022-10-21T06:02:33.159Z,10.65
2022-10-21T06:05:01.011Z,10.79
2022-10-21T06:07:28.897Z,10.89
2022-10-21T06:09:56.767Z,10.87
2022-10-21T06:12:24.625Z,11.26
2022-10-21T06:14:53.844Z,11.40
2022-10-21T06:17:21.696Z,11.26
2022-10-21T06:19:50.975Z,11.55
2022-10-21T06:22:19.151Z,11.19
2022-10-21T06:24:47.346Z,10.94
2022-10-21T06:27:15.300Z,11.02
2022-10-21T06:29:43.208Z,11.00
2022-10-21T06:32:13.075Z,11.35
2022-10-21T06:34:41.029Z,11.88
2022-10-21T06:37:08.948Z,12.14
2022-10-21T06:39:36.806Z,12.35
2022-10-21T06:42:04.840Z,12.91
2022-10-21T06:44:32.770Z,12.54
2022-10-21T06:47:00.620Z,12.64
2022-10-21T06:49:29.805Z,12.98
2022-10-21T06:51:57.656Z,13.38
2022-10-21T06:54:25.904Z,13.07
2022-10-21T06:56:53.776Z,12.97
2022-10-21T06:59:21.632Z,13.10
2022-10-21T07:01:59.713Z,13.24
2022-10-21T07:04:30.360Z,13.57
2022-10-21T07:06:58.456Z,13.62
2022-10-21T07:09:26.366Z,13.97
2022-10-21T07:11:54.321Z,13.68
2022-10-21T07:14:22.220Z,13.81
2022-10-21T07:16:51.543Z,14.05
2022-10-21T07:19:19.408Z,13.90
2022-10-21T07:21:48.903Z,13.77
2022-10-21T07:24:22.178Z,13.78
2022-10-21T07:26:51.079Z,13.57
2022-10-21T07:29:19.659Z,13.75
2022-10-21T07:31:47.523Z,13.84
2022-10-21T07:34:15.403Z,13.27
2022-10-21T07:36:47.935Z,13.71
2022-10-21T07:39:18.498Z,14.22
2022-10-21T07:41:48.645Z,14.36
2022-10-21T07:44:16.776Z,14.16
2022-10-21T07:46:45.796Z,14.03
2022-10-21T07:49:14.954Z,13.90
2022-10-21T07:51:45.162Z,13.85
2022-10-21T07:54:13.954Z,14.03
2022-10-21T07:56:46.210Z,13.90
2022-10-21T07:59:15.481Z,12.85
2022-10-21T08:01:45.883Z,12.48
2022-10-21T08:04:15.502Z,12.50
2022-10-21T08:06:43.683Z,12.71
2022-10-21T08:09:11.842Z,13.73
2022-10-21T08:11:39.715Z,14.03
2022-10-21T08:14:10.622Z,14.01
2022-10-21T08:16:38.950Z,14.04
2022-10-21T08:19:07.098Z,14.21
2022-10-21T08:21:35.389Z,14.24
2022-10-21T08:24:04.424Z,14.68
2022-10-21T08:26:32.623Z,14.46
2022-10-21T08:29:00.542Z,14.82
2022-10-21T08:31:29.829Z,14.73
2022-10-21T08:33:58.219Z,14.86
2022-10-21T08:36:27.269Z,14.77
2022-10-21T08:38:55.757Z,14.42
2022-10-21T08:41:54.488Z,15.12
2022-10-21T08:44:31.148Z,15.75
2022-10-21T08:47:06.706Z,16.03
2022-10-21T08:49:45.171Z,15.35
2022-10-21T08:52:16.593Z,15.87
2022-10-21T08:54:48.067Z,15.47
2022-10-21T08:57:16.721Z,15.67
2022-10-21T08:59:44.712Z,16.58
2022-10-21T09:02:37.444Z,16.47
2022-10-21T09:05:34.147Z,16.54
2022-10-21T09:08:16.681Z,16.12
2022-10-21T09:10:57.508Z,16.55
2022-10-21T09:13:40.164Z,16.18
2022-10-21T09:16:14.625Z,16.33
2022-10-21T09:19:00.932Z,17.02
2022-10-21T09:21:40.299Z,17.09
2022-10-21T09:24:11.471Z,16.38
2022-10-21T09:26:42.567Z,16.71
2022-10-21T09:29:26.215Z,16.95
2022-10-21T09:32:02.034Z,17.37
2022-10-21T09:34:43.360Z,17.25
2022-10-21T09:37:18.106Z,17.02
2022-10-21T09:39:50.267Z,17.53
2022-10-21T09:42:35.735Z,16.93
2022-10-21T09:45:16.426Z,17.33
2022-10-21T09:47:45.839Z,17.94
2022-10-21T09:50:18.319Z,17.68
2022-10-21T09:52:54.004Z,17.55
2022-10-21T09:55:22.519Z,17.80
2022-10-21T09:57:55.756Z,18.37
2022-10-21T10:00:23.664Z,18.61
2022-10-21T10:02:51.663Z,18.20
2022-10-21T10:05:38.712Z,18.24
2022-10-21T10:08:38.697Z,18.71
2022-10-21T10:11:18.259Z,18.83
2022-10-21T10:13:48.173Z,18.56
2022-10-21T10:16:22.320Z,18.78
2022-10-21T10:18:51.806Z,18.31
2022-10-21T10:21:22.750Z,17.66
2022-10-21T10:23:52.488Z,17.87
2022-10-21T10:26:25.400Z,18.04
2022-10-21T10:28:56.614Z,17.64
2022-10-21T10:31:31.693Z,17.70
2022-10-21T10:34:03.586Z,18.39
2022-10-21T10:36:36.747Z,17.22
2022-10-21T10:39:08.684Z,18.28
2022-10-21T10:41:40.048Z,18.32
2022-10-21T10:44:27.135Z,18.18
2022-10-21T10:46:57.030Z,18.24
2022-10-21T10:49:26.939Z,17.80
2022-10-21T10:52:08.939Z,18.17
2022-10-21T10:54:38.124Z,18.07
2022-10-21T10:57:11.950Z,18.10
2022-10-21T10:59:43.213Z,18.80
2022-10-21T11:02:26.253Z,19.32
2022-10-21T11:05:08.134Z,19.39
2022-10-21T11:07:44.620Z,18.94
2022-10-21T11:10:29.687Z,18.75
2022-10-21T11:12:58.081Z,19.40
2022-10-21T11:15:40.707Z,19.22
2022-10-21T11:18:25.832Z,19.14
2022-10-21T11:21:02.638Z,19.72
2022-10-21T11:23:57.849Z,19.91
2022-10-21T11:26:34.829Z,19.63
2022-10-21T11:29:10.436Z,19.45
2022-10-21T11:32:06.693Z,19.52
2022-10-21T11:34:41.565Z,19.74
2022-10-21T11:37:28.716Z,19.01
2022-10-21T11:40:04.190Z,19.29
2022-10-21T11:42:41.696Z,18.37
2022-10-21T11:45:47.924Z,19.50
2022-10-21T11:48:30.339Z,19.88
2022-10-21T11:51:14.108Z,20.00
2022-10-21T11:53:59.376Z,20.19
2022-10-21T11:56:39.858Z,19.67
2022-10-21T11:59:21.430Z,19.55
2022-10-21T12:01:56.930Z,19.81
2022-10-21T12:04:34.501Z,19.94
2022-10-21T12:07:25.375Z,19.86
2022-10-21T12:09:59.071Z,19.68
2022-10-21T12:12:34.425Z,19.79
2022-10-21T12:15:05.775Z,19.59
2022-10-21T12:20:21.315Z,19.84
2022-10-21T12:22:57.949Z,19.94
2022-10-21T12:25:34.949Z,20.05
2022-10-21T12:28:12.862Z,20.09
2022-10-21T12:30:45.859Z,19.84
2022-10-21T12:33:18.938Z,19.89
2022-10-21T12:35:50.458Z,19.94
2022-10-21T12:38:27.123Z,19.95
2022-10-21T12:41:26.873Z,20.56
2022-10-21T12:44:03.640Z,20.56
2022-10-21T12:46:39.199Z,20.45
2022-10-21T12:49:24.071Z,20.18
2022-10-21T12:51:56.247Z,20.04
2022-10-21T12:54:30.346Z,19.86
2022-10-21T12:57:05.037Z,19.33
2022-10-21T12:59:36.845Z,20.53
2022-10-21T13:02:21.614Z,20.49
2022-10-21T13:04:52.305Z,20.10
2022-10-21T13:07:30.676Z,20.33
2022-10-21T13:10:26.527Z,20.33
2022-10-21T13:13:31.909Z,20.20
2022-10-21T13:16:03.325Z,20.23
2022-10-21T13:18:53.841Z,20.06
2022-10-21T13:21:43.507Z,19.77
2022-10-21T13:24:24.936Z,19.26
2022-10-21T13:26:55.813Z,18.90
2022-10-21T13:29:34.625Z,18.71
2022-10-21T13:32:27.050Z,18.28
2022-10-21T13:35:02.990Z,18.49
2022-10-21T13:37:34.696Z,18.56
2022-10-21T13:40:06.120Z,18.47
2022-10-21T13:42:38.034Z,18.49
2022-10-21T13:45:23.033Z,18.53
2022-10-21T13:48:02.643Z,18.49
2022-10-21T13:50:33.753Z,18.31
2022-10-21T13:53:04.048Z,18.15
2022-10-21T13:55:31.910Z,17.22
2022-10-21T13:57:59.754Z,18.22
2022-10-21T14:00:30.360Z,18.10
2022-10-21T14:03:04.524Z,18.15
2022-10-21T14:05:37.627Z,18.19
2022-10-21T14:08:08.912Z,18.22
2022-10-21T14:10:37.192Z,18.08
2022-10-21T14:13:05.671Z,17.90
2022-10-21T14:15:41.040Z,17.88
2022-10-21T14:18:28.255Z,17.93
2022-10-21T14:20:58.207Z,17.72
2022-10-21T14:23:26.682Z,17.56
2022-10-21T14:25:58.114Z,17.78
2022-10-21T14:28:26.141Z,17.84
2022-10-21T14:30:54.160Z,17.85
2022-10-21T14:33:28.404Z,17.82
2022-10-21T14:36:07.462Z,17.81
2022-10-21T14:38:41.688Z,17.76
2022-10-21T14:41:14.731Z,17.74
2022-10-21T14:43:44.512Z,17.70
2022-10-21T14:46:12.800Z,17.66
2022-10-21T14:48:47.672Z,17.57
2022-10-21T14:51:21.222Z,17.52
2022-10-21T14:53:53.844Z,17.47
2022-10-21T14:56:25.518Z,17.45
2022-10-21T14:58:57.623Z,17.43
2022-10-21T15:01:26.183Z,17.38
2022-10-21T15:03:57.211Z,17.39
2022-10-21T15:06:27.304Z,17.36
2022-10-21T15:09:18.677Z,17.32
2022-10-21T15:11:47.784Z,17.22
2022-10-21T15:14:21.853Z,17.25
2022-10-21T15:16:52.844Z,17.17
2022-10-21T15:19:25.476Z,17.07
2022-10-21T15:21:57.191Z,16.98
2022-10-21T15:24:31.460Z,16.66
2022-10-21T15:27:01.200Z,16.74
2022-10-21T15:29:36.363Z,16.80
2022-10-21T15:32:05.790Z,16.67
2022-10-21T15:34:35.086Z,16.49
2022-10-21T15:37:03.171Z,16.49
2022-10-21T15:39:31.303Z,16.32
2022-10-21T15:41:59.978Z,16.24
2022-10-21T15:44:29.270Z,15.86
2022-10-21T15:47:00.738Z,16.03
2022-10-21T15:49:34.145Z,15.99
2022-10-21T15:52:03.392Z,16.02
2022-10-21T15:54:31.287Z,15.87
2022-10-21T15:56:59.987Z,15.75
2022-10-21T15:59:30.205Z,15.57
2022-10-21T16:01:59.137Z,15.47
2022-10-21T16:04:27.919Z,15.39
2022-10-21T16:06:56.421Z,15.32
2022-10-21T16:09:27.712Z,15.23
2022-10-21T16:12:00.077Z,15.16
2022-10-21T16:14:30.028Z,15.11
2022-10-21T16:16:58.761Z,15.00
2022-10-21T16:19:26.633Z,14.78
2022-10-21T16:21:54.820Z,14.55
2022-10-21T16:24:22.668Z,14.51
2022-10-21T16:26:51.848Z,14.32
2022-10-21T16:29:22.442Z,14.28
2022-10-21T16:31:51.023Z,13.92
2022-10-21T16:34:18.966Z,14.03
2022-10-21T16:36:46.875Z,13.90
2022-10-21T16:39:17.942Z,13.79
2022-10-21T16:41:46.126Z,13.65
2022-10-21T16:44:15.459Z,13.56
2022-10-21T16:46:50.197Z,13.38
2022-10-21T16:49:22.170Z,13.13
2022-10-21T16:51:51.955Z,12.97
2022-10-21T16:54:20.775Z,12.93
2022-10-21T16:56:52.062Z,12.82
2022-10-21T16:59:24.282Z,12.80
2022-10-21T17:01:52.331Z,12.72
2022-10-21T17:04:20.210Z,12.64
2022-10-21T17:06:48.039Z,12.54
2022-10-21T17:09:16.067Z,12.46
2022-10-21T17:11:44.383Z,12.42
2022-10-21T17:14:16.409Z,12.39
2022-10-21T17:16:46.416Z,12.37
2022-10-21T17:19:14.987Z,12.32
2022-10-21T17:21:43.724Z,12.25
2022-10-21T17:24:16.320Z,12.18
2022-10-21T17:26:44.462Z,12.08
2022-10-21T17:29:12.836Z,12.02
2022-10-21T17:31:42.155Z,11.92
2022-10-21T17:34:24.048Z,11.85
2022-10-21T17:36:53.085Z,11.79
2022-10-21T17:39:21.004Z,11.57
2022-10-21T17:41:48.973Z,11.63
2022-10-21T17:44:17.455Z,11.47
2022-10-21T17:46:47.448Z,11.51
2022-10-21T17:49:16.947Z,11.46
2022-10-21T17:51:44.839Z,11.41
2022-10-21T17:54:12.667Z,11.38
2022-10-21T17:56:41.705Z,11.31
2022-10-21T17:59:09.675Z,11.02
2022-10-21T18:01:37.634Z,11.24
2022-10-21T18:04:05.818Z,11.23
2022-10-21T18:06:35.044Z,11.13
2022-10-21T18:09:03.836Z,11.18
2022-10-21T18:11:32.219Z,11.16
2022-10-21T18:14:00.073Z,11.03
2022-10-21T18:16:27.926Z,11.16
2022-10-21T18:18:57.430Z,11.21
2022-10-21T18:21:28.202Z,11.13
2022-10-21T18:23:57.827Z,11.10
2022-10-21T18:26:27.587Z,10.74
2022-10-21T18:28:58.078Z,11.04
2022-10-21T18:31:29.891Z,11.00
2022-10-21T18:33:59.356Z,11.05
2022-10-21T18:36:27.682Z,10.89
2022-10-21T18:38:58.235Z,11.08
2022-10-21T18:41:26.398Z,11.05
2022-10-21T18:43:55.803Z,11.02
2022-10-21T18:46:24.230Z,10.98
2022-10-21T18:48:52.211Z,10.93
2022-10-21T18:51:21.308Z,10.76
2022-10-21T18:53:52.751Z,10.90
2022-10-21T18:56:23.872Z,10.91
2022-10-21T18:58:52.528Z,10.63
2022-10-21T19:01:22.652Z,10.88
2022-10-21T19:03:53.963Z,10.86
2022-10-21T19:06:36.011Z,10.82
2022-10-21T19:09:08.381Z,10.76
2022-10-21T19:11:37.724Z,10.74
2022-10-21T19:14:08.416Z,10.69
2022-10-21T19:16:39.676Z,10.67
2022-10-21T19:19:08.171Z,10.71
2022-10-21T19:21:36.263Z,10.67
2022-10-21T19:24:04.369Z,10.63
2022-10-21T19:26:33.376Z,10.19
2022-10-21T19:29:03.951Z,10.58
2022-10-21T19:31:36.013Z,10.15
2022-10-21T19:34:06.469Z,10.51
2022-10-21T19:36:34.887Z,10.43
2022-10-21T19:39:02.947Z,10.48
2022-10-21T19:41:30.991Z,10.45
2022-10-21T19:43:59.439Z,10.45
2022-10-21T19:46:30.732Z,10.40
2022-10-21T19:48:59.120Z,10.39
2022-10-21T19:51:27.271Z,10.38
2022-10-21T19:53:56.043Z,10.37
2022-10-21T19:56:29.693Z,10.36
2022-10-21T19:59:02.631Z,10.34
2022-10-21T20:01:33.444Z,10.33
2022-10-21T20:04:02.467Z,10.23
2022-10-21T20:06:32.023Z,10.23
2022-10-21T20:09:02.342Z,10.21
2022-10-21T20:11:30.819Z,10.21
2022-10-21T20:13:59.080Z,10.06
2022-10-21T20:16:28.630Z,10.11
2022-10-21T20:18:58.875Z,10.00
2022-10-21T20:21:27.624Z,9.99
2022-10-21T20:23:58.077Z,10.08
2022-10-21T20:26:26.613Z,10.08
2022-10-21T20:28:54.535Z,9.70
2022-10-21T20:31:22.619Z,10.01
2022-10-21T20:33:51.988Z,10.03
2022-10-21T20:36:24.406Z,9.97
2022-10-21T20:38:54.818Z,9.96
2022-10-21T20:41:25.971Z,9.99
2022-10-21T20:43:55.392Z,9.97
2022-10-21T20:46:25.134Z,9.93
2022-10-21T20:48:54.723Z,9.90
2022-10-21T20:51:26.144Z,9.90
2022-10-21T20:53:55.613Z,9.86
2022-10-21T20:56:26.373Z,9.84
2022-10-21T20:58:54.245Z,9.81
2022-10-21T21:01:26.111Z,9.82
2022-10-21T21:03:56.359Z,9.81
2022-10-21T21:06:26.025Z,9.77
2022-10-21T21:09:15.102Z,9.76
2022-10-21T21:11:42.023Z,9.76
2022-10-21T21:14:09.897Z,9.75
2022-10-21T21:16:37.717Z,9.80
2022-10-21T21:19:08.660Z,9.75
2022-10-21T21:21:37.937Z,9.71
2022-10-21T21:24:06.327Z,9.62
2022-10-21T21:26:36.519Z,9.62
2022-10-21T21:29:06.189Z,9.61
2022-10-21T21:31:36.077Z,9.57
2022-10-21T21:34:03.974Z,9.53
2022-10-21T21:36:31.877Z,9.53
2022-10-21T21:39:01.214Z,9.55
2022-10-21T21:41:29.408Z,9.54
2022-10-21T21:43:58.337Z,9.57
2022-10-21T21:46:27.227Z,9.47
2022-10-21T21:48:59.503Z,9.62
2022-10-21T21:51:30.750Z,9.63
2022-10-21T21:53:59.559Z,9.60
2022-10-21T21:56:28.959Z,9.61
2022-10-21T21:58:58.063Z,9.65
2022-10-21T22:01:28.686Z,9.61
2022-10-21T22:03:57.352Z,9.58
2022-10-21T22:06:28.210Z,9.16
2022-10-21T22:08:56.790Z,9.50
2022-10-21T22:11:26.589Z,9.48
2022-10-21T22:13:56.277Z,9.50
2022-10-21T22:16:27.299Z,9.56
2022-10-21T22:18:55.594Z,9.53
2022-10-21T22:21:25.242Z,9.44
2022-10-21T22:23:53.448Z,9.46
2022-10-21T22:26:23.162Z,9.36
2022-10-21T22:28:51.049Z,9.28
2022-10-21T22:31:25.746Z,9.25
2022-10-21T22:33:57.251Z,9.18
2022-10-21T22:36:25.097Z,8.47
2022-10-21T22:38:52.911Z,9.13
2022-10-21T22:41:20.759Z,9.19
2022-10-21T22:43:48.597Z,9.09
2022-10-21T22:49:06.416Z,8.93
2022-10-21T22:51:34.528Z,8.77
2022-10-21T22:54:02.397Z,8.66
2022-10-21T22:56:30.280Z,8.53
2022-10-21T22:58:58.343Z,8.50
2022-10-21T23:01:30.073Z,8.63
2022-10-21T23:03:58.343Z,8.64
2022-10-21T23:06:27.555Z,8.63
2022-10-21T23:08:55.529Z,8.50
2022-10-21T23:11:23.436Z,8.38
2022-10-21T23:14:02.496Z,8.35
2022-10-21T23:16:31.807Z,8.38
2022-10-21T23:18:59.825Z,7.70
2022-10-21T23:21:29.340Z,8.44
2022-10-21T23:23:57.411Z,8.35
2022-10-21T23:26:25.474Z,8.24
2022-10-21T23:28:53.343Z,8.15
2022-10-21T23:31:21.503Z,8.10
2022-10-21T23:33:49.804Z,7.89
2022-10-21T23:36:17.714Z,7.93
2022-10-21T23:38:46.960Z,7.85
2022-10-21T23:41:15.224Z,7.81
2022-10-21T23:43:43.068Z,7.83
2022-10-21T23:46:10.947Z,7.79
2022-10-21T23:48:38.976Z,7.76
2022-10-21T23:51:07.091Z,7.73
2022-10-21T23:53:34.936Z,7.89
2022-10-21T23:56:04.663Z,7.93
2022-10-21T23:58:32.968Z,7.96
